Time;durP1;ratioP1;P1;durP2;ratioP2;P2;SDS_P1;SDS_P2;PMS_P1;PMS_P2;Temp;Humidity;BMP_temperature;BMP_pressure;BME280_temperature;BME280_humidity;BME280_pressure;Samples;Min_cycle;Max_cycle;Signal;HPM_P1;HPM_P2
2021/09/04 00:02:05;;;;;;;11.18;5.45;;;;;;;11.93;100.00;98874.31;5053314;28;20070;-68
2021/09/04 00:04:31;;;;;;;10.93;5.90;;;;;;;11.91;100.00;98870.97;5035175;28;20025;-69
2021/09/04 00:06:56;;;;;;;7.60;5.28;;;;;;;11.96;100.00;98881.19;5053947;28;20031;-69
2021/09/04 00:09:22;;;;;;;7.93;5.15;;;;;;;11.68;100.00;98852.38;5022694;28;20025;-69
2021/09/04 00:11:47;;;;;;;9.73;5.72;;;;;;;11.74;100.00;98861.56;5053402;28;20020;-69
2021/09/04 00:14:12;;;;;;;11.77;6.25;;;;;;;11.82;100.00;98869.50;5052875;28;20035;-69
2021/09/04 00:16:38;;;;;;;9.20;5.00;;;;;;;11.90;100.00;98866.59;5053351;28;20495;-69
2021/09/04 00:19:03;;;;;;;7.45;5.28;;;;;;;11.79;99.81;98862.63;5053476;28;20044;-69
2021/09/04 00:21:28;;;;;;;7.93;5.38;;;;;;;11.78;100.00;98870.94;5050462;28;20536;-69
2021/09/04 00:23:53;;;;;;;7.35;5.18;;;;;;;11.66;100.00;98865.34;5052138;28;20032;-69
2021/09/04 00:26:22;;;;;;;9.93;5.28;;;;;;;11.53;100.00;98855.31;5051666;28;20036;-68
2021/09/04 00:28:48;;;;;;;8.23;5.30;;;;;;;11.72;99.92;98869.91;5053194;28;20100;-68
2021/09/04 00:31:13;;;;;;;8.02;4.85;;;;;;;11.68;99.78;98855.09;5053432;28;20112;-69
2021/09/04 00:33:38;;;;;;;8.68;5.55;;;;;;;11.55;100.00;98853.25;5053084;28;20024;-69
2021/09/04 00:36:03;;;;;;;8.32;5.13;;;;;;;11.50;100.00;98861.16;5053407;28;20056;-69
2021/09/04 00:38:29;;;;;;;9.77;5.35;;;;;;;11.28;100.00;98840.72;5052481;28;20068;-68
2021/09/04 00:40:54;;;;;;;10.93;5.88;;;;;;;11.26;100.00;98853.63;5035740;28;20132;-68
2021/09/04 00:43:19;;;;;;;11.48;5.85;;;;;;;11.16;100.00;98838.63;5052924;28;20549;-69
2021/09/04 00:45:44;;;;;;;8.60;5.55;;;;;;;11.23;100.00;98857.56;5051577;28;20035;-68
2021/09/04 00:48:10;;;;;;;7.28;5.32;;;;;;;11.16;100.00;98860.28;5051565;28;20028;-68
2021/09/04 00:50:36;;;;;;;9.43;5.70;;;;;;;11.23;100.00;98856.75;5051074;28;20028;-69
2021/09/04 00:53:03;;;;;;;8.65;5.82;;;;;;;11.18;100.00;98854.66;5052851;28;20029;-69
2021/09/04 00:55:29;;;;;;;12.85;5.90;;;;;;;11.14;100.00;98839.88;5052756;28;20025;-68
2021/09/04 00:57:55;;;;;;;9.35;5.50;;;;;;;11.06;100.00;98840.91;5052633;28;20035;-68
2021/09/04 01:00:21;;;;;;;8.43;5.70;;;;;;;11.19;100.00;98859.88;5052323;28;20343;-69
2021/09/04 01:02:47;;;;;;;8.30;5.47;;;;;;;11.07;100.00;98858.81;5052328;28;20029;-69
2021/09/04 01:05:12;;;;;;;10.43;5.50;;;;;;;11.11;100.00;98848.41;5033784;28;20116;-69
2021/09/04 01:07:38;;;;;;;8.88;5.88;;;;;;;11.20;100.00;98863.41;5053673;28;20036;-68
2021/09/04 01:10:05;;;;;;;9.65;5.53;;;;;;;11.19;100.00;98865.28;5053788;28;20375;-68
2021/09/04 01:12:31;;;;;;;9.48;5.40;;;;;;;11.09;100.00;98847.78;5055082;28;20040;-69
2021/09/04 01:14:57;;;;;;;7.93;5.15;;;;;;;11.19;100.00;98848.22;5054950;28;20058;-68
2021/09/04 01:17:23;;;;;;;7.78;5.25;;;;;;;11.23;100.00;98867.59;5055687;28;20021;-69
2021/09/04 01:19:49;;;;;;;11.52;5.68;;;;;;;11.10;100.00;98854.84;5054428;28;20112;-68
2021/09/04 01:22:14;;;;;;;8.63;6.18;;;;;;;11.05;100.00;98849.22;5052102;28;20070;-69
2021/09/04 01:24:40;;;;;;;11.05;6.28;;;;;;;11.12;100.00;98852.78;5037490;28;20487;-68
2021/09/04 01:27:05;;;;;;;10.50;5.68;;;;;;;11.15;100.00;98842.34;5055372;28;20020;-68
2021/09/04 01:29:30;;;;;;;8.88;5.90;;;;;;;11.24;100.00;98851.13;5054945;28;20021;-69
2021/09/04 01:31:56;;;;;;;10.38;5.45;;;;;;;11.14;100.00;98850.69;5054106;28;20074;-69
2021/09/04 01:34:21;;;;;;;8.50;5.78;;;;;;;11.03;100.00;98849.44;5051585;28;20422;-68
2021/09/04 01:36:46;;;;;;;12.43;6.32;;;;;;;11.00;100.00;98844.41;5051007;28;20020;-69
2021/09/04 01:39:12;;;;;;;12.63;6.03;;;;;;;11.04;100.00;98852.97;5052115;28;20419;-69
2021/09/04 01:41:40;;;;;;;10.45;6.20;;;;;;;11.00;100.00;98841.69;5033847;28;20474;-69
2021/09/04 01:44:05;;;;;;;10.60;6.00;;;;;;;10.74;100.00;98820.81;5051427;28;20017;-68
2021/09/04 01:46:31;;;;;;;11.30;6.43;;;;;;;10.92;100.00;98839.19;5034334;28;20025;-68
2021/09/04 01:48:59;;;;;;;9.48;5.70;;;;;;;10.86;100.00;98845.44;5034099;28;20021;-68
2021/09/04 01:51:25;;;;;;;14.10;6.97;;;;;;;10.86;100.00;98840.00;5051320;28;20024;-68
2021/09/04 01:53:50;;;;;;;8.75;5.75;;;;;;;10.79;100.00;98841.88;5049963;28;20446;-68
2021/09/04 01:56:16;;;;;;;9.38;6.85;;;;;;;10.73;100.00;98833.53;5050638;28;20052;-68
2021/09/04 01:58:41;;;;;;;14.95;6.18;;;;;;;10.87;100.00;98830.84;5052276;28;20021;-69
2021/09/04 02:01:07;;;;;;;9.07;6.38;;;;;;;10.85;100.00;98835.66;5051548;28;20032;-68
2021/09/04 02:03:36;;;;;;;8.40;5.75;;;;;;;10.72;100.00;98831.88;5032028;28;20051;-69
2021/09/04 02:06:02;;;;;;;10.23;5.80;;;;;;;10.61;100.00;98820.78;5045627;28;20055;-69
2021/09/04 02:08:28;;;;;;;8.13;5.15;;;;;;;10.67;100.00;98834.34;5033519;28;20027;-68
2021/09/04 02:10:53;;;;;;;9.15;5.45;;;;;;;10.59;100.00;98837.22;5044312;28;20029;-69
2021/09/04 02:13:18;;;;;;;8.00;5.07;;;;;;;10.52;100.00;98836.38;5050758;28;20017;-68
2021/09/04 02:15:44;;;;;;;8.18;5.20;;;;;;;10.47;100.00;98834.25;5033709;28;20029;-69
2021/09/04 02:18:09;;;;;;;7.85;4.75;;;;;;;10.27;100.00;98811.66;5051317;28;20082;-69
2021/09/04 02:20:34;;;;;;;8.38;5.38;;;;;;;10.27;100.00;98807.16;5033598;28;20029;-69
2021/09/04 02:23:00;;;;;;;8.50;5.10;;;;;;;10.37;100.00;98843.78;5051639;28;20474;-69
2021/09/04 02:25:25;;;;;;;8.40;5.35;;;;;;;10.37;100.00;98843.78;5049113;28;20037;-69
2021/09/04 02:27:50;;;;;;;7.60;4.78;;;;;;;10.32;100.00;98836.25;5051930;28;20061;-68
2021/09/04 02:30:16;;;;;;;9.43;5.10;;;;;;;10.25;100.00;98836.22;5050942;28;20033;-69
2021/09/04 02:32:41;;;;;;;9.23;5.22;;;;;;;10.25;100.00;98836.22;5050400;28;20447;-69
2021/09/04 02:35:07;;;;;;;8.80;5.50;;;;;;;10.28;100.00;98838.56;5033290;28;20021;-69
2021/09/04 02:37:33;;;;;;;8.13;5.25;;;;;;;10.05;100.00;98817.19;5051653;28;20029;-68
2021/09/04 02:39:58;;;;;;;7.97;4.95;;;;;;;9.97;100.00;98816.53;5050559;28;20079;-69
2021/09/04 02:42:23;;;;;;;8.38;5.03;;;;;;;10.07;100.00;98831.34;5050407;28;20721;-69
2021/09/04 02:44:49;;;;;;;8.52;4.47;;;;;;;9.99;100.00;98839.63;5045552;28;20425;-69
2021/09/04 02:47:14;;;;;;;7.20;4.97;;;;;;;9.93;100.00;98804.41;5026734;28;20028;-69
2021/09/04 02:49:39;;;;;;;10.05;5.10;;;;;;;10.17;100.00;98827.44;5051795;28;20549;-69
2021/09/04 02:52:05;;;;;;;8.85;4.97;;;;;;;10.23;100.00;98832.88;5055354;28;20425;-69
2021/09/04 02:54:30;;;;;;;10.13;5.07;;;;;;;9.99;100.00;98820.69;5052981;28;20057;-69
2021/09/04 02:56:56;;;;;;;10.05;5.63;;;;;;;10.18;100.00;98826.41;5037721;28;20082;-68
2021/09/04 02:59:21;;;;;;;7.95;4.95;;;;;;;10.13;100.00;98832.41;5054986;28;20059;-69
2021/09/04 03:01:46;;;;;;;9.98;5.25;;;;;;;10.02;100.00;98823.00;5054528;28;20158;-69
2021/09/04 03:04:11;;;;;;;7.22;5.13;;;;;;;10.08;100.00;98824.06;5054817;28;20051;-69
2021/09/04 03:06:37;;;;;;;7.45;5.25;;;;;;;9.96;100.00;98820.25;5055405;28;20039;-68
2021/09/04 03:09:02;;;;;;;7.20;4.93;;;;;;;9.86;100.00;98826.84;5055572;28;20103;-68
2021/09/04 03:11:28;;;;;;;8.45;5.45;;;;;;;9.85;100.00;98825.19;5055159;28;20052;-68
2021/09/04 03:13:53;;;;;;;8.60;5.25;;;;;;;9.90;100.00;98829.16;5033881;28;20028;-68
2021/09/04 03:16:18;;;;;;;8.15;4.50;;;;;;;9.93;100.00;98823.34;5054614;28;20522;-68
2021/09/04 03:18:44;;;;;;;7.10;4.15;;;;;;;9.97;100.00;98833.56;5053551;28;20033;-68
2021/09/04 03:21:09;;;;;;;6.57;4.22;;;;;;;9.95;100.00;98838.31;5053991;28;20021;-68
2021/09/04 03:23:35;;;;;;;7.88;4.55;;;;;;;9.93;100.00;98831.44;5054349;28;20025;-68
2021/09/04 03:26:00;;;;;;;6.88;4.72;;;;;;;9.96;100.00;98821.09;5054227;28;20021;-68
2021/09/04 03:28:25;;;;;;;5.30;3.70;;;;;;;9.86;100.00;98813.34;5054905;28;20382;-68
2021/09/04 03:30:51;;;;;;;7.03;4.50;;;;;;;9.83;100.00;98829.13;5054586;28;20028;-69
2021/09/04 03:33:16;;;;;;;7.15;4.57;;;;;;;9.83;100.00;98831.81;5053644;28;20056;-68
2021/09/04 03:35:42;;;;;;;8.13;4.85;;;;;;;9.87;100.00;98827.69;5054242;28;20039;-69
2021/09/04 03:38:07;;;;;;;7.20;4.57;;;;;;;9.76;100.00;98831.75;5054405;28;20021;-68
2021/09/04 03:40:32;;;;;;;7.05;4.55;;;;;;;9.72;100.00;98835.91;5054426;28;20024;-68
2021/09/04 03:42:58;;;;;;;8.02;4.30;;;;;;;9.62;100.00;98820.03;5054415;28;20479;-68
2021/09/04 03:45:23;;;;;;;6.65;4.65;;;;;;;9.61;100.00;98812.13;5052972;28;20100;-68
2021/09/04 03:47:48;;;;;;;7.90;4.22;;;;;;;9.56;100.00;98801.06;5053797;28;20025;-68
2021/09/04 03:50:13;;;;;;;6.60;4.57;;;;;;;9.69;100.00;98828.19;5053801;28;20029;-68
2021/09/04 03:52:39;;;;;;;10.05;4.68;;;;;;;9.59;100.00;98814.22;5053781;28;20111;-68
2021/09/04 03:55:05;;;;;;;7.30;4.90;;;;;;;9.60;100.00;98826.66;5053641;28;20413;-68
2021/09/04 03:57:30;;;;;;;7.82;5.00;;;;;;;9.50;100.00;98831.56;5053821;28;20450;-68
2021/09/04 03:59:56;;;;;;;9.93;5.50;;;;;;;9.55;100.00;98837.22;5053426;28;20067;-68
2021/09/04 04:02:21;;;;;;;7.20;4.65;;;;;;;9.56;100.00;98831.63;5052324;28;20474;-68
2021/09/04 04:04:46;;;;;;;7.70;4.97;;;;;;;9.59;100.00;98835.81;5053542;28;20040;-68
2021/09/04 04:07:11;;;;;;;7.57;5.05;;;;;;;9.70;100.00;98832.56;5054051;28;20067;-68
2021/09/04 04:09:37;;;;;;;7.57;5.03;;;;;;;9.24;100.00;98776.31;5036593;28;20155;-69
2021/09/04 04:12:03;;;;;;;7.65;5.00;;;;;;;9.52;100.00;98829.53;5053020;28;20651;-68
2021/09/04 04:14:28;;;;;;;6.00;4.70;;;;;;;9.25;100.00;98809.53;5052652;28;20032;-68
2021/09/04 04:16:53;;;;;;;7.28;5.20;;;;;;;9.27;100.00;98821.00;5035617;28;20021;-67
2021/09/04 04:19:18;;;;;;;8.70;4.75;;;;;;;9.39;100.00;98831.06;5035034;28;20029;-69
2021/09/04 04:21:44;;;;;;;8.10;4.43;;;;;;;9.37;100.00;98816.09;5073141;22;20057;-70
2021/09/04 04:24:09;;;;;;;7.68;5.25;;;;;;;9.32;100.00;98822.06;5033892;28;20618;-71
2021/09/04 04:26:34;;;;;;;8.15;5.15;;;;;;;9.32;100.00;98830.19;5034142;28;20029;-75
2021/09/04 04:28:59;;;;;;;7.68;5.07;;;;;;;9.37;100.00;98822.31;5033139;28;20026;-75
2021/09/04 04:31:25;;;;;;;8.77;4.95;;;;;;;9.43;100.00;98826.09;5022017;28;20025;-76
2021/09/04 04:33:50;;;;;;;9.52;5.00;;;;;;;9.25;100.00;98818.50;5034072;28;20021;-75
2021/09/04 04:36:15;;;;;;;7.22;4.78;;;;;;;9.19;100.00;98830.88;5035249;28;20504;-76
2021/09/04 04:38:41;;;;;;;7.28;4.75;;;;;;;9.16;100.00;98825.88;5016118;28;20064;-74
2021/09/04 04:41:06;;;;;;;6.82;4.43;;;;;;;9.21;100.00;98817.22;5033426;28;20100;-76
2021/09/04 04:43:31;;;;;;;9.05;5.25;;;;;;;9.15;100.00;98802.63;5033444;28;20036;-74
2021/09/04 04:45:57;;;;;;;8.40;5.75;;;;;;;9.30;100.00;98805.25;5036701;28;20036;-75
2021/09/04 04:48:22;;;;;;;9.05;5.13;;;;;;;9.57;100.00;98817.09;5034815;28;20045;-74
2021/09/04 04:50:47;;;;;;;9.15;5.35;;;;;;;9.46;100.00;98828.44;5033727;28;20040;-74
2021/09/04 04:53:12;;;;;;;7.78;5.10;;;;;;;9.29;100.00;98813.53;5015426;28;20031;-74
2021/09/04 04:55:38;;;;;;;8.98;6.00;;;;;;;9.36;100.00;98825.25;5024657;28;20029;-75
2021/09/04 04:58:03;;;;;;;9.13;5.60;;;;;;;9.34;100.00;98822.72;5039809;28;20499;-75
2021/09/04 05:00:29;;;;;;;10.05;6.00;;;;;;;9.37;100.00;98841.22;5037726;28;20104;-74
2021/09/04 05:02:55;;;;;;;10.45;7.07;;;;;;;9.36;100.00;98823.38;5033597;28;20052;-75
2021/09/04 05:05:20;;;;;;;10.75;6.60;;;;;;;9.33;100.00;98814.84;5012712;28;20116;-74
2021/09/04 05:07:46;;;;;;;9.23;6.20;;;;;;;9.39;100.00;98819.44;5051602;28;20017;-74
2021/09/04 05:10:11;;;;;;;9.40;5.88;;;;;;;9.46;100.00;98817.63;5045076;28;20539;-74
2021/09/04 05:12:37;;;;;;;11.02;6.18;;;;;;;9.65;100.00;98841.25;5014835;28;20025;-74
2021/09/04 05:15:03;;;;;;;10.38;6.00;;;;;;;9.76;100.00;98839.03;5021863;28;20406;-73
2021/09/04 05:17:28;;;;;;;11.52;5.97;;;;;;;9.75;100.00;98803.09;5033128;28;20025;-73
2021/09/04 05:19:53;;;;;;;9.00;5.85;;;;;;;10.06;100.00;98834.22;5019595;28;20025;-76
2021/09/04 05:22:19;;;;;;;15.77;6.28;;;;;;;10.21;100.00;98823.28;5033628;28;20529;-73
2021/09/04 05:24:44;;;;;;;14.85;6.60;;;;;;;10.27;100.00;98827.88;5032471;28;20032;-74
2021/09/04 05:27:09;;;;;;;8.80;5.30;;;;;;;10.29;100.00;98815.03;5032762;28;20032;-74
2021/09/04 05:29:35;;;;;;;8.88;5.45;;;;;;;10.57;96.60;98843.88;5015066;28;20029;-74
2021/09/04 05:32:00;;;;;;;8.50;4.72;;;;;;;10.63;94.65;98838.47;5033169;28;20411;-74
2021/09/04 05:34:25;;;;;;;9.38;5.15;;;;;;;11.17;92.55;98820.50;5033272;28;20475;-75
2021/09/04 05:36:51;;;;;;;8.75;4.68;;;;;;;12.75;84.88;98825.00;5031295;28;20031;-74
2021/09/04 05:39:16;;;;;;;7.25;4.40;;;;;;;14.74;74.50;98838.72;5032271;28;20151;-71
2021/09/04 05:41:41;;;;;;;7.32;3.85;;;;;;;16.29;65.37;98804.94;5044332;28;20044;-76
2021/09/04 05:44:07;;;;;;;9.20;4.10;;;;;;;17.54;61.24;98816.09;5034026;28;20524;-69
2021/09/04 05:46:32;;;;;;;7.32;3.60;;;;;;;18.26;59.32;98820.78;5030186;28;20050;-75
2021/09/04 05:48:57;;;;;;;4.78;2.60;;;;;;;18.77;57.98;98813.22;5027799;28;20040;-74
2021/09/04 05:51:24;;;;;;;6.68;3.10;;;;;;;19.08;56.93;98820.97;5030852;28;20128;-74
2021/09/04 05:53:49;;;;;;;4.03;3.00;;;;;;;19.41;55.77;98806.19;5031840;28;20104;-72
2021/09/04 05:56:14;;;;;;;5.85;3.47;;;;;;;19.27;56.22;98819.50;5032010;28;20407;-71
2021/09/04 05:58:40;;;;;;;8.00;2.92;;;;;;;19.45;56.20;98799.91;5012395;28;20033;-71
2021/09/04 06:01:06;;;;;;;4.68;2.78;;;;;;;20.19;53.97;98819.41;5031228;28;20032;-71
2021/09/04 06:03:32;;;;;;;4.20;3.20;;;;;;;20.73;53.61;98808.97;5031153;28;20041;-73
2021/09/04 06:05:57;;;;;;;4.93;3.65;;;;;;;21.19;52.23;98811.00;5031673;28;20021;-73
2021/09/04 06:08:25;;;;;;;6.80;4.18;;;;;;;21.76;50.72;98815.47;5029360;28;20065;-72
2021/09/04 06:10:51;;;;;;;7.22;3.50;;;;;;;21.98;49.71;98809.69;5020579;28;20026;-70
2021/09/04 06:13:17;;;;;;;7.07;3.72;;;;;;;22.22;49.88;98806.38;5021689;28;20048;-71
2021/09/04 06:15:43;;;;;;;4.65;3.47;;;;;;;23.31;47.79;98805.59;5020946;28;20029;-72
2021/09/04 06:18:08;;;;;;;7.93;3.17;;;;;;;24.14;44.87;98779.72;5021800;28;20490;-73
2021/09/04 06:20:33;;;;;;;9.32;3.25;;;;;;;23.99;44.81;98793.72;5019175;28;20056;-72
2021/09/04 06:22:59;;;;;;;5.90;3.70;;;;;;;24.85;43.48;98800.19;5018789;28;20021;-69
2021/09/04 06:25:24;;;;;;;5.90;3.85;;;;;;;25.84;41.38;98803.16;5020549;28;20036;-72
2021/09/04 06:27:49;;;;;;;6.10;3.90;;;;;;;25.68;41.27;98794.28;5022035;28;20039;-71
2021/09/04 06:30:15;;;;;;;9.43;3.50;;;;;;;25.65;41.84;98801.25;5020104;28;20494;-72
2021/09/04 06:32:40;;;;;;;5.93;3.63;;;;;;;25.11;42.17;98800.66;5010007;28;20534;-71
2021/09/04 06:35:06;;;;;;;5.05;3.30;;;;;;;24.77;42.79;98788.97;5026619;28;20479;-71
2021/09/04 06:37:31;;;;;;;7.20;3.60;;;;;;;25.38;41.50;98804.72;5022219;28;20437;-69
2021/09/04 06:39:56;;;;;;;6.93;4.20;;;;;;;25.71;42.13;98802.81;5021775;28;20026;-73
2021/09/04 06:42:22;;;;;;;5.15;3.83;;;;;;;26.06;40.51;98805.28;5018938;28;20056;-73
2021/09/04 06:44:47;;;;;;;6.20;3.88;;;;;;;27.09;38.90;98799.28;5023486;28;20072;-73
2021/09/04 06:47:12;;;;;;;5.72;3.72;;;;;;;25.91;41.09;98795.28;5010751;28;20051;-73
2021/09/04 06:49:38;;;;;;;6.18;3.90;;;;;;;25.69;41.49;98790.38;5024888;28;20037;-76
2021/09/04 06:52:03;;;;;;;6.15;3.67;;;;;;;27.52;37.78;98798.88;5024149;28;20026;-73
2021/09/04 06:54:28;;;;;;;5.65;3.70;;;;;;;28.99;34.78;98803.53;5009966;28;20025;-74
2021/09/04 06:56:54;;;;;;;9.85;4.07;;;;;;;28.48;36.45;98789.16;5031090;28;20072;-75
2021/09/04 06:59:19;;;;;;;6.30;3.70;;;;;;;29.15;34.65;98773.28;5031352;28;20026;-75
2021/09/04 07:01:45;;;;;;;9.05;3.85;;;;;;;28.16;35.60;98787.50;5031425;28;20426;-74
2021/09/04 07:04:11;;;;;;;6.47;3.83;;;;;;;28.19;36.46;98804.41;5031234;28;20035;-74
2021/09/04 07:06:37;;;;;;;4.65;3.45;;;;;;;27.69;36.28;98807.34;5013214;28;20112;-74
2021/09/04 07:09:02;;;;;;;5.15;3.45;;;;;;;28.35;35.34;98792.84;5014100;28;20116;-72
2021/09/04 07:11:28;;;;;;;4.95;3.58;;;;;;;29.71;33.07;98796.53;5031059;28;20104;-74
2021/09/04 07:13:53;;;;;;;6.18;4.00;;;;;;;29.82;32.61;98795.06;5031067;28;20037;-72
2021/09/04 07:16:20;;;;;;;5.22;3.97;;;;;;;31.32;31.00;98796.84;5032077;28;20029;-75
2021/09/04 07:18:46;;;;;;;5.97;3.45;;;;;;;30.76;31.66;98811.00;5032084;28;20398;-76
2021/09/04 07:21:11;;;;;;;6.07;3.72;;;;;;;30.55;32.37;98783.03;5035392;28;20028;-75
2021/09/04 07:23:36;;;;;;;6.90;3.83;;;;;;;30.09;33.86;98807.78;5032511;28;20029;-74
2021/09/04 07:26:02;;;;;;;5.75;3.63;;;;;;;30.60;33.52;98802.34;5013741;28;20034;-73
2021/09/04 07:28:27;;;;;;;5.20;3.60;;;;;;;31.78;31.93;98797.75;5029411;28;20112;-73
2021/09/04 07:30:53;;;;;;;6.03;4.07;;;;;;;30.69;33.58;98796.75;5039769;28;20457;-75
2021/09/04 07:33:19;;;;;;;6.53;3.75;;;;;;;30.90;33.46;98799.59;5035840;28;20029;-72
2021/09/04 07:35:44;;;;;;;6.65;3.20;;;;;;;32.04;31.85;98789.94;5031892;28;20041;-72
2021/09/04 07:38:09;;;;;;;5.60;3.63;;;;;;;31.37;32.17;98808.66;5035277;28;20025;-72
2021/09/04 07:40:35;;;;;;;8.43;4.05;;;;;;;30.87;33.13;98803.88;5041871;28;20096;-75
2021/09/04 07:43:02;;;;;;;5.72;3.15;;;;;;;31.53;32.09;98806.06;5041964;28;20029;-73
2021/09/04 07:45:27;;;;;;;6.00;3.58;;;;;;;30.93;33.29;98808.13;5035000;28;20048;-76
2021/09/04 07:47:52;;;;;;;4.88;3.35;;;;;;;30.77;33.09;98809.84;5037335;28;20021;-73
2021/09/04 07:50:18;;;;;;;5.82;3.75;;;;;;;31.28;32.68;98812.63;5035234;28;20104;-73
2021/09/04 07:52:43;;;;;;;6.10;3.85;;;;;;;32.04;31.76;98814.28;5034361;28;20467;-74
2021/09/04 07:55:08;;;;;;;4.95;3.65;;;;;;;30.56;33.01;98810.59;5034907;28;20025;-73
2021/09/04 07:57:34;;;;;;;5.28;3.47;;;;;;;29.89;34.41;98791.75;5035063;28;20052;-72
2021/09/04 07:59:59;;;;;;;4.72;3.15;;;;;;;31.25;32.70;98816.94;5034828;28;20067;-73
2021/09/04 08:02:24;;;;;;;8.75;3.53;;;;;;;31.02;32.30;98802.47;5034660;28;20457;-73
2021/09/04 08:04:49;;;;;;;6.20;3.42;;;;;;;31.48;32.56;98811.84;5034959;28;20033;-75
2021/09/04 08:07:15;;;;;;;4.78;3.50;;;;;;;32.32;31.11;98811.66;5034982;28;20021;-73
2021/09/04 08:09:40;;;;;;;9.55;3.63;;;;;;;32.03;31.76;98805.09;5025920;28;20100;-74
2021/09/04 08:12:06;;;;;;;5.20;3.95;;;;;;;32.19;31.35;98816.44;5034899;28;20115;-73
2021/09/04 08:14:31;;;;;;;4.93;3.67;;;;;;;31.76;31.76;98817.69;5034417;28;20021;-74
2021/09/04 08:16:56;;;;;;;6.40;3.45;;;;;;;32.35;31.26;98827.78;5034156;28;20021;-73
2021/09/04 08:19:22;;;;;;;4.38;3.45;;;;;;;31.08;32.08;98797.50;5034746;28;20104;-73
2021/09/04 08:21:47;;;;;;;7.90;3.40;;;;;;;32.68;30.78;98824.91;5016527;28;20022;-73
2021/09/04 08:24:12;;;;;;;4.85;3.70;;;;;;;32.90;30.03;98825.59;5016196;28;20108;-74
2021/09/04 08:26:38;;;;;;;5.65;3.25;;;;;;;34.68;29.00;98821.53;5038091;28;20378;-73
2021/09/04 08:29:03;;;;;;;7.20;3.80;;;;;;;33.47;30.00;98804.16;5046192;28;20032;-74
2021/09/04 08:31:29;;;;;;;7.07;3.50;;;;;;;34.42;29.17;98822.06;5016196;28;20028;-74
2021/09/04 08:33:54;;;;;;;4.78;3.28;;;;;;;33.90;29.08;98805.38;5027065;28;20030;-72
2021/09/04 08:36:19;;;;;;;4.63;3.33;;;;;;;33.83;30.35;98804.03;5027994;28;20021;-77
2021/09/04 08:38:45;;;;;;;8.13;3.63;;;;;;;34.73;29.16;98819.63;5033383;28;20037;-75
2021/09/04 08:41:10;;;;;;;4.10;3.23;;;;;;;34.51;29.02;98819.06;5036587;28;20021;-73
2021/09/04 08:43:35;;;;;;;3.85;3.08;;;;;;;35.40;27.70;98817.59;5031572;28;20355;-76
2021/09/04 08:46:01;;;;;;;3.92;3.00;;;;;;;35.87;27.41;98827.00;5014477;28;20057;-75
2021/09/04 08:48:27;;;;;;;4.13;2.83;;;;;;;35.62;26.99;98815.25;5020409;28;20029;-73
2021/09/04 08:50:53;;;;;;;5.57;3.17;;;;;;;34.94;27.97;98799.66;5030863;28;20025;-72
2021/09/04 08:53:20;;;;;;;4.88;3.30;;;;;;;34.83;27.69;98825.50;5035913;28;20514;-75
2021/09/04 08:55:45;;;;;;;5.38;2.92;;;;;;;35.38;27.79;98821.97;5029469;28;20021;-76
2021/09/04 08:58:11;;;;;;;7.88;3.17;;;;;;;35.40;28.29;98831.66;4996752;28;20028;-76
2021/09/04 09:00:39;;;;;;;5.75;3.08;;;;;;;36.04;27.12;98837.00;5031668;28;20032;-72
2021/09/04 09:03:06;;;;;;;3.30;2.88;;;;;;;36.09;27.02;98833.91;5041250;28;20059;-73
2021/09/04 09:05:42;;;;;;;7.30;3.72;;;;;;;34.89;27.77;98814.78;5034655;28;20035;-74
2021/09/04 09:08:25;;;;;;;3.60;2.97;;;;;;;35.39;27.89;98820.78;5032462;28;20028;-73
2021/09/04 09:10:52;;;;;;;5.28;3.35;;;;;;;36.07;27.64;98822.19;4999912;28;20125;-72
2021/09/04 09:13:21;;;;;;;6.13;3.20;;;;;;;35.29;27.99;98817.38;5018301;28;20475;-74
2021/09/04 09:15:48;;;;;;;5.50;3.10;;;;;;;36.06;28.18;98826.19;5033573;28;20040;-72
2021/09/04 09:18:15;;;;;;;5.10;3.30;;;;;;;36.20;27.62;98818.81;5033452;28;20022;-73
2021/09/04 09:20:46;;;;;;;8.00;3.17;;;;;;;35.97;27.19;98821.63;5028710;28;20526;-71
2021/09/04 09:23:14;;;;;;;5.75;3.22;;;;;;;36.34;27.75;98817.44;5032868;28;20033;-72
2021/09/04 09:25:41;;;;;;;3.63;2.70;;;;;;;36.99;27.47;98810.88;5033400;28;20112;-70
2021/09/04 09:28:14;;;;;;;5.07;3.28;;;;;;;37.15;26.50;98816.38;5033871;28;20453;-71
2021/09/04 09:30:56;;;;;;;9.60;3.22;;;;;;;37.55;25.69;98820.59;5036708;28;20036;-70
2021/09/04 09:33:25;;;;;;;4.05;2.97;;;;;;;38.41;24.89;98821.53;5033074;28;20029;-71
2021/09/04 09:35:53;;;;;;;6.13;3.10;;;;;;;38.00;25.04;98813.09;5033748;28;20502;-71
2021/09/04 09:38:22;;;;;;;7.20;2.80;;;;;;;37.37;26.14;98823.16;5033194;28;20398;-72
2021/09/04 09:40:50;;;;;;;3.53;2.80;;;;;;;36.25;27.36;98825.34;5030292;28;20040;-69
2021/09/04 09:43:17;;;;;;;6.75;3.13;;;;;;;37.06;26.65;98813.84;5031755;28;20032;-71
2021/09/04 09:45:48;;;;;;;7.18;3.17;;;;;;;38.07;24.79;98807.50;5032653;28;20021;-72
2021/09/04 09:48:19;;;;;;;6.18;3.38;;;;;;;38.22;26.14;98806.44;5034765;28;20060;-71
2021/09/04 09:50:44;;;;;;;5.50;3.53;;;;;;;38.03;24.78;98801.81;5039057;28;20051;-71
2021/09/04 09:53:10;;;;;;;6.65;3.00;;;;;;;39.28;23.67;98798.41;5039630;28;20029;-70
2021/09/04 09:55:35;;;;;;;5.70;2.70;;;;;;;39.88;23.39;98807.19;5028184;28;20044;-71
2021/09/04 09:58:01;;;;;;;3.90;2.70;;;;;;;38.74;23.16;98809.34;5030630;28;20395;-72
2021/09/04 10:00:28;;;;;;;5.55;2.90;;;;;;;37.81;24.71;98814.03;5036912;28;20418;-70
2021/09/04 10:03:01;;;;;;;3.80;3.13;;;;;;;38.01;24.92;98812.69;5036232;28;20021;-71
2021/09/04 10:05:30;;;;;;;3.65;2.83;;;;;;;38.12;24.91;98795.84;5033456;28;20084;-71
2021/09/04 10:07:57;;;;;;;5.03;3.20;;;;;;;38.34;24.04;98802.53;5032501;28;20052;-71
2021/09/04 10:10:25;;;;;;;4.13;2.55;;;;;;;39.11;23.96;98789.41;5033759;28;20031;-71
2021/09/04 10:12:50;;;;;;;7.95;2.97;;;;;;;38.48;24.96;98782.88;5049941;28;20052;-71
2021/09/04 10:15:17;;;;;;;3.35;2.50;;;;;;;38.58;24.27;98782.16;5031844;28;20088;-71
2021/09/04 10:17:44;;;;;;;4.68;2.70;;;;;;;38.36;24.98;98786.00;5030337;28;20033;-71
2021/09/04 10:20:10;;;;;;;6.10;3.00;;;;;;;38.59;24.79;98785.78;5047243;28;20120;-73
2021/09/04 10:22:35;;;;;;;5.07;2.80;;;;;;;38.47;23.26;98769.97;5076880;22;20037;-72
2021/09/04 10:25:13;;;;;;;4.63;2.53;;;;;;;38.86;23.45;98777.13;5051879;28;20040;-71
2021/09/04 10:27:40;;;;;;;;;;;;;;;39.71;23.26;98775.94;5051708;28;20767;-71
2021/09/04 10:30:28;;;;;;;4.75;2.63;;;;;;;39.42;22.97;98781.50;5051336;28;20380;-72
2021/09/04 10:32:57;;;;;;;3.22;2.60;;;;;;;39.14;23.00;98771.63;5051298;28;20052;-71
2021/09/04 10:35:44;;;;;;;5.00;2.58;;;;;;;38.45;23.36;98774.38;5051959;28;20067;-71
2021/09/04 10:38:34;;;;;;;3.40;2.67;;;;;;;38.76;22.73;98778.66;5050868;28;20043;-71
2021/09/04 10:41:05;;;;;;;3.72;2.45;;;;;;;40.12;22.02;98773.66;5037257;28;20573;-71
2021/09/04 10:43:32;;;;;;;5.28;2.78;;;;;;;38.56;22.36;98764.75;5048252;28;20494;-71
2021/09/04 10:45:58;;;;;;;4.45;2.30;;;;;;;38.48;23.59;98763.09;5048427;28;20061;-71
2021/09/04 10:48:23;;;;;;;4.40;3.00;;;;;;;36.59;25.09;98775.66;5048246;28;20079;-71
2021/09/04 10:51:00;;;;;;;4.70;2.73;;;;;;;36.11;25.52;98775.22;5047681;28;20021;-72
2021/09/04 10:53:46;;;;;;;3.92;2.80;;;;;;;36.93;23.88;98764.47;5047284;28;20272;-72
2021/09/04 10:56:31;;;;;;;3.45;2.75;;;;;;;38.05;23.54;98762.69;5028587;28;20033;-71
2021/09/04 10:58:58;;;;;;;4.88;2.42;;;;;;;38.52;22.82;98752.63;5039775;28;20080;-72
2021/09/04 11:01:27;;;;;;;2.50;2.30;;;;;;;38.91;23.05;98752.13;5031019;28;20103;-71
2021/09/04 11:03:54;;;;;;;3.70;2.63;;;;;;;39.16;23.89;98751.44;5046930;28;20105;-72
2021/09/04 11:06:21;;;;;;;3.60;2.95;;;;;;;38.22;22.35;98751.94;5048759;28;20048;-71
2021/09/04 11:08:48;;;;;;;4.00;3.00;;;;;;;37.78;22.96;98750.66;5047515;28;20028;-71
2021/09/04 11:11:16;;;;;;;3.15;2.60;;;;;;;38.57;22.12;98742.97;5047112;28;20033;-71
2021/09/04 11:13:50;;;;;;;4.20;2.80;;;;;;;38.34;21.73;98743.16;5051099;28;20060;-71
2021/09/04 11:16:35;;;;;;;3.35;3.00;;;;;;;34.84;25.92;98740.00;5052158;28;20712;-71
2021/09/04 11:19:36;;;;;;;3.20;2.47;;;;;;;37.50;23.66;98739.91;5037137;28;20033;-72
2021/09/04 11:22:13;;;;;;;4.07;2.70;;;;;;;37.02;24.27;98736.78;4949928;28;20102;-72
2021/09/04 11:24:40;;;;;;;6.50;2.83;;;;;;;38.34;23.16;98743.16;5036174;28;20048;-72
2021/09/04 11:27:16;;;;;;;;;;;;;;;38.83;22.72;98733.47;5052419;28;20518;-71
2021/09/04 11:29:51;;;;;;;5.28;2.88;;;;;;;38.61;23.80;98737.34;5052008;28;19952;-73